Time;durP1;ratioP1;P1;durP2;ratioP2;P2;SDS_P1;SDS_P2;PMS_P1;PMS_P2;Temp;Humidity;BMP_temperature;BMP_pressure;BME280_temperature;BME280_humidity;BME280_pressure;Samples;Min_cycle;Max_cycle;Signal;HPM_P1;HPM_P2
2021/01/03 00:00:19;;;;;;;33.13;17.70;;;2.60;99.00;;;;;;5053838;28;20055;-72
2021/01/03 00:02:46;;;;;;;32.03;17.60;;;2.60;99.30;;;;;;5054008;28;20032;-72
2021/01/03 00:05:13;;;;;;;35.10;17.92;;;2.60;98.80;;;;;;5063510;28;20083;-72
2021/01/03 00:07:39;;;;;;;31.10;16.77;;;2.70;98.90;;;;;;5033437;28;20036;-72
2021/01/03 00:10:06;;;;;;;32.40;17.17;;;2.60;98.90;;;;;;5033731;28;20022;-72
2021/01/03 00:12:31;;;;;;;33.40;18.52;;;2.70;98.90;;;;;;5033927;28;20025;-71
2021/01/03 00:14:57;;;;;;;34.65;17.77;;;2.80;98.60;;;;;;5032602;28;20699;-72
2021/01/03 00:17:22;;;;;;;33.05;18.50;;;2.90;98.30;;;;;;5048724;28;20017;-72
2021/01/03 00:19:48;;;;;;;38.75;18.85;;;2.80;98.50;;;;;;5032825;28;20026;-72
2021/01/03 00:22:13;;;;;;;34.65;18.85;;;2.90;98.50;;;;;;5034084;28;20032;-72
2021/01/03 00:24:39;;;;;;;34.35;18.58;;;2.80;98.40;;;;;;5033827;28;20018;-72
2021/01/03 00:27:04;;;;;;;34.47;18.40;;;2.80;98.60;;;;;;5032004;28;20476;-72
2021/01/03 00:29:30;;;;;;;36.65;18.50;;;2.80;98.60;;;;;;5051765;28;20100;-72
2021/01/03 00:32:00;;;;;;;38.05;21.02;;;2.80;98.90;;;;;;5053645;28;20415;-72
2021/01/03 00:34:26;;;;;;;41.70;20.80;;;2.70;99.20;;;;;;5053334;28;20486;-72
2021/01/03 00:36:52;;;;;;;41.35;21.13;;;2.60;99.00;;;;;;5051339;28;20124;-72
2021/01/03 00:39:18;;;;;;;42.08;20.92;;;2.60;99.40;;;;;;5053320;28;20036;-72
2021/01/03 00:41:48;;;;;;;46.15;22.67;;;2.60;99.70;;;;;;5053371;28;20017;-72
2021/01/03 00:44:13;;;;;;;36.05;20.98;;;2.50;99.70;;;;;;5053553;28;20028;-72
2021/01/03 00:46:39;;;;;;;41.50;20.08;;;2.50;99.50;;;;;;5052601;28;20033;-72
2021/01/03 00:49:04;;;;;;;38.25;20.85;;;2.60;99.40;;;;;;5053199;28;20036;-71
2021/01/03 00:51:30;;;;;;;40.40;20.55;;;2.60;99.40;;;;;;5053150;28;20107;-72
2021/01/03 00:53:57;;;;;;;35.88;20.42;;;2.50;99.60;;;;;;5053126;28;20487;-72
2021/01/03 00:56:23;;;;;;;41.92;21.48;;;2.40;99.80;;;;;;5052336;28;20025;-72
2021/01/03 00:58:49;;;;;;;37.08;20.95;;;2.50;99.70;;;;;;5051508;28;20021;-72
2021/01/03 01:01:14;;;;;;;42.13;21.77;;;2.40;99.90;;;;;;5052976;28;20103;-72
2021/01/03 01:03:39;;;;;;;39.17;21.08;;;2.40;99.80;;;;;;5068343;28;20052;-72
2021/01/03 01:06:05;;;;;;;46.10;22.65;;;2.40;99.80;;;;;;5067766;28;20017;-72
2021/01/03 01:08:31;;;;;;;39.67;20.67;;;2.40;99.90;;;;;;5051549;28;20708;-72
2021/01/03 01:10:56;;;;;;;42.65;20.05;;;2.40;99.90;;;;;;5052917;28;20104;-72
2021/01/03 01:13:22;;;;;;;40.30;20.58;;;2.40;99.90;;;;;;5052666;28;20140;-71
2021/01/03 01:15:47;;;;;;;45.13;22.88;;;2.40;99.80;;;;;;5052667;28;20063;-72
2021/01/03 01:18:13;;;;;;;45.60;23.40;;;2.30;99.90;;;;;;5051991;28;20637;-72
2021/01/03 01:20:39;;;;;;;47.20;23.70;;;2.40;99.90;;;;;;5052671;28;20035;-72
2021/01/03 01:23:04;;;;;;;44.13;23.77;;;2.40;99.90;;;;;;5051277;28;20044;-72
2021/01/03 01:25:32;;;;;;;48.05;24.50;;;2.30;99.90;;;;;;5052475;28;20412;-72
2021/01/03 01:27:58;;;;;;;50.20;24.98;;;2.30;99.90;;;;;;5051844;28;20162;-72
2021/01/03 01:30:26;;;;;;;49.58;26.02;;;2.30;99.90;;;;;;5052480;28;20053;-72
2021/01/03 01:32:52;;;;;;;53.10;26.70;;;2.30;99.90;;;;;;5052398;28;20074;-74
2021/01/03 01:35:21;;;;;;;52.08;25.08;;;2.40;99.90;;;;;;5052168;28;20119;-72
2021/01/03 01:37:47;;;;;;;48.85;25.90;;;2.30;99.90;;;;;;5067079;28;20029;-72
2021/01/03 01:40:15;;;;;;;52.88;26.95;;;2.20;99.90;;;;;;5052254;28;20022;-72
2021/01/03 01:42:41;;;;;;;58.80;29.08;;;2.20;99.90;;;;;;5050991;28;20025;-72
2021/01/03 01:45:09;;;;;;;58.17;29.42;;;2.20;99.90;;;;;;5067601;28;20021;-72
2021/01/03 01:47:38;;;;;;;56.95;28.10;;;2.30;99.90;;;;;;5050648;28;20103;-72
2021/01/03 01:50:09;;;;;;;57.38;27.02;;;2.30;99.90;;;;;;5052325;28;20096;-72
2021/01/03 01:52:38;;;;;;;;;;;2.30;99.90;;;;;;5067897;28;20025;-72
2021/01/03 01:55:10;;;;;;;55.33;28.17;;;2.20;99.90;;;;;;5067416;28;19958;-72
2021/01/03 01:58:11;;;;;;;53.83;25.45;;;2.10;99.90;;;;;;5066789;28;20116;-72
2021/01/03 02:00:38;;;;;;;58.97;28.88;;;2.30;99.90;;;;;;5021358;28;20036;-72
2021/01/03 02:03:42;;;;;;;60.80;30.35;;;2.20;99.90;;;;;;5052050;28;20021;-71
2021/01/03 02:06:24;;;;;;;60.40;29.27;;;2.10;99.90;;;;;;5066699;28;20146;-72
2021/01/03 02:08:56;;;;;;;63.33;29.50;;;2.20;99.90;;;;;;5050753;28;20475;-72
2021/01/03 02:11:26;;;;;;;59.80;30.20;;;2.20;99.90;;;;;;5067358;28;20467;-72
2021/01/03 02:13:55;;;;;;;64.40;30.48;;;2.30;99.90;;;;;;5067077;28;20032;-71
2021/01/03 02:16:24;;;;;;;63.45;30.92;;;2.30;99.90;;;;;;5066282;28;20025;-72
2021/01/03 02:18:51;;;;;;;61.83;29.63;;;2.20;99.90;;;;;;5066896;28;20021;-72
2021/01/03 02:21:32;;;;;;;64.22;32.47;;;2.20;99.90;;;;;;5066948;28;20545;-72
2021/01/03 02:24:33;;;;;;;69.82;34.45;;;2.10;99.90;;;;;;5050244;28;20043;-72
2021/01/03 02:27:10;;;;;;;69.75;33.92;;;1.90;99.90;;;;;;5050792;28;20059;-72
2021/01/03 02:29:38;;;;;;;59.08;30.33;;;1.90;99.90;;;;;;5050532;28;20063;-72
2021/01/03 02:32:06;;;;;;;65.38;31.75;;;1.90;99.90;;;;;;5066702;28;20128;-72
2021/01/03 02:34:40;;;;;;;70.03;34.00;;;1.90;99.90;;;;;;5051225;28;20031;-72
2021/01/03 02:37:13;;;;;;;62.45;31.35;;;1.90;99.90;;;;;;5050400;28;20094;-72
2021/01/03 02:39:51;;;;;;;68.43;34.05;;;1.90;99.90;;;;;;5066494;28;20398;-72
2021/01/03 02:42:26;;;;;;;63.00;30.83;;;1.80;99.90;;;;;;5051150;28;20029;-71
2021/01/03 02:44:53;;;;;;;56.88;29.02;;;1.80;99.90;;;;;;5051116;28;20097;-72
2021/01/03 02:47:23;;;;;;;61.83;30.80;;;1.90;99.90;;;;;;5050507;28;20025;-72
2021/01/03 02:49:49;;;;;;;;;;;1.80;99.90;;;;;;5066966;28;20107;-72
2021/01/03 02:52:23;;;;;;;63.22;29.17;;;1.70;99.90;;;;;;5065807;28;19932;-72
2021/01/03 02:54:50;;;;;;;66.18;31.27;;;1.80;99.90;;;;;;5066420;28;20404;-72
2021/01/03 02:57:16;;;;;;;66.70;32.95;;;1.70;99.90;;;;;;5065591;28;20119;-72
2021/01/03 02:59:41;;;;;;;61.88;30.42;;;1.60;99.90;;;;;;5066358;28;20104;-72
2021/01/03 03:02:07;;;;;;;61.63;31.00;;;1.60;99.90;;;;;;5049544;28;20017;-72
2021/01/03 03:04:32;;;;;;;65.47;31.88;;;1.70;99.90;;;;;;5050787;28;20093;-72
2021/01/03 03:06:58;;;;;;;58.45;27.77;;;1.60;99.90;;;;;;5048885;28;20086;-72
2021/01/03 03:09:23;;;;;;;60.03;29.98;;;1.60;99.90;;;;;;5050863;28;20549;-72
2021/01/03 03:11:49;;;;;;;59.90;28.58;;;1.60;99.90;;;;;;5049540;28;20029;-72
2021/01/03 03:14:15;;;;;;;54.28;27.45;;;1.60;99.90;;;;;;5049459;28;20029;-72
2021/01/03 03:16:41;;;;;;;52.60;25.92;;;1.60;99.90;;;;;;5048828;28;20025;-72
2021/01/03 03:19:07;;;;;;;53.08;26.50;;;1.50;99.90;;;;;;5066151;28;20039;-73
2021/01/03 03:21:32;;;;;;;56.83;28.52;;;1.60;99.90;;;;;;5050871;28;20502;-72
2021/01/03 03:23:58;;;;;;;53.63;25.58;;;1.50;99.90;;;;;;5066218;28;20107;-72
2021/01/03 03:26:23;;;;;;;49.00;25.33;;;1.50;99.90;;;;;;5065406;28;20029;-72
2021/01/03 03:28:49;;;;;;;49.20;25.98;;;1.50;99.90;;;;;;5050595;28;20029;-72
2021/01/03 03:31:15;;;;;;;47.70;25.42;;;1.50;99.90;;;;;;5050648;28;20029;-72
2021/01/03 03:33:40;;;;;;;43.40;23.00;;;1.50;99.90;;;;;;5066049;28;20515;-72
2021/01/03 03:36:06;;;;;;;47.17;24.90;;;1.50;99.90;;;;;;5049987;28;20048;-72
2021/01/03 03:38:31;;;;;;;47.78;23.95;;;1.50;99.90;;;;;;5065619;28;20033;-72
2021/01/03 03:40:57;;;;;;;43.90;22.67;;;1.50;99.90;;;;;;5049714;28;20109;-72
2021/01/03 03:43:22;;;;;;;44.97;23.98;;;1.50;99.90;;;;;;5065264;28;20053;-72
2021/01/03 03:45:48;;;;;;;44.28;22.02;;;1.60;99.90;;;;;;5066049;28;20043;-72
2021/01/03 03:48:13;;;;;;;44.63;22.80;;;1.60;99.90;;;;;;5048729;28;20113;-71
2021/01/03 03:50:39;;;;;;;46.25;22.50;;;1.70;99.90;;;;;;5047111;28;20422;-73
2021/01/03 03:53:04;;;;;;;46.10;23.42;;;1.50;99.90;;;;;;5065102;28;20029;-72
2021/01/03 03:55:30;;;;;;;39.50;22.30;;;1.50;99.90;;;;;;5050226;28;20033;-72
2021/01/03 03:57:55;;;;;;;40.13;21.60;;;1.50;99.90;;;;;;5065170;28;20391;-72
2021/01/03 04:00:23;;;;;;;47.30;23.27;;;1.50;99.90;;;;;;5049019;28;20021;-72
2021/01/03 04:02:49;;;;;;;42.00;22.50;;;1.50;99.90;;;;;;5049019;28;20086;-72
2021/01/03 04:05:18;;;;;;;47.47;22.80;;;1.40;99.90;;;;;;5051983;28;20025;-72
2021/01/03 04:07:44;;;;;;;41.57;21.90;;;1.50;99.90;;;;;;5053484;28;20031;-72
2021/01/03 04:10:11;;;;;;;40.55;21.70;;;1.40;99.90;;;;;;5052667;28;20025;-72
2021/01/03 04:12:36;;;;;;;40.00;22.40;;;1.40;99.90;;;;;;5069335;28;20025;-72
2021/01/03 04:15:11;;;;;;;40.25;22.50;;;1.40;99.90;;;;;;5053838;28;20017;-72
2021/01/03 04:17:37;;;;;;;41.50;21.80;;;1.40;99.90;;;;;;5053214;28;20071;-72
2021/01/03 04:20:06;;;;;;;48.17;23.55;;;1.40;99.90;;;;;;5069289;28;20032;-72
2021/01/03 04:22:31;;;;;;;42.20;21.35;;;1.30;99.90;;;;;;5069104;28;20143;-72
2021/01/03 04:24:58;;;;;;;42.20;22.27;;;1.30;99.90;;;;;;5052329;28;20061;-72
2021/01/03 04:27:24;;;;;;;40.22;20.65;;;1.40;99.90;;;;;;5053086;28;20487;-72
2021/01/03 04:29:50;;;;;;;36.63;20.10;;;1.40;99.90;;;;;;5053593;28;20037;-72
2021/01/03 04:32:16;;;;;;;37.38;19.88;;;1.40;99.90;;;;;;5053717;28;20075;-72
2021/01/03 04:34:42;;;;;;;35.65;18.73;;;1.40;99.90;;;;;;5052275;28;20407;-72
2021/01/03 04:37:09;;;;;;;32.97;16.95;;;1.40;99.90;;;;;;5068446;28;20037;-72
2021/01/03 04:39:35;;;;;;;32.25;17.65;;;1.40;99.90;;;;;;5053679;28;20025;-72
2021/01/03 04:42:17;;;;;;;32.72;18.52;;;1.40;99.90;;;;;;5069164;28;20067;-72
2021/01/03 04:44:46;;;;;;;37.65;18.85;;;1.40;99.90;;;;;;5069155;28;20388;-72
2021/01/03 04:47:43;;;;;;;36.05;18.45;;;1.40;99.90;;;;;;5053035;28;20021;-72
2021/01/03 04:50:24;;;;;;;32.78;18.15;;;1.40;99.90;;;;;;5035869;28;20557;-72
2021/01/03 04:52:49;;;;;;;36.53;19.17;;;1.30;99.90;;;;;;5053205;28;20017;-72
2021/01/03 04:55:21;;;;;;;36.00;19.50;;;1.30;99.90;;;;;;5053043;28;20017;-72
2021/01/03 04:58:16;;;;;;;36.65;20.70;;;1.30;99.90;;;;;;5051249;28;20514;-72
2021/01/03 05:00:47;;;;;;;39.25;20.42;;;1.30;99.90;;;;;;5053078;28;20028;-72
2021/01/03 05:03:28;;;;;;;;;;;1.30;99.90;;;;;;5053444;28;20021;-72
2021/01/03 05:05:53;;;;;;;34.35;17.95;;;1.40;99.90;;;;;;5052938;28;19931;-72
2021/01/03 05:08:23;;;;;;;35.00;18.40;;;1.40;99.90;;;;;;5052002;28;20047;-72
2021/01/03 05:10:48;;;;;;;32.78;16.55;;;1.40;99.90;;;;;;5052934;28;20025;-72
2021/01/03 05:13:20;;;;;;;29.73;15.68;;;1.40;99.90;;;;;;5068201;28;20074;-72
2021/01/03 05:15:46;;;;;;;28.40;16.83;;;1.40;99.90;;;;;;5052024;28;20025;-72
2021/01/03 05:18:12;;;;;;;30.23;16.77;;;1.50;99.90;;;;;;5050766;28;20025;-72
2021/01/03 05:20:38;;;;;;;26.27;15.55;;;1.30;99.90;;;;;;5052701;28;20060;-72
2021/01/03 05:23:19;;;;;;;27.33;16.05;;;1.30;99.90;;;;;;5051789;28;20075;-73
2021/01/03 05:25:45;;;;;;;32.47;16.70;;;1.30;99.90;;;;;;5052544;28;20116;-73
2021/01/03 05:28:21;;;;;;;28.45;14.40;;;1.20;99.90;;;;;;5051954;28;20552;-73
2021/01/03 05:30:46;;;;;;;25.48;14.77;;;1.20;99.90;;;;;;5052630;28;20063;-72
2021/01/03 05:33:15;;;;;;;30.42;15.75;;;1.30;99.90;;;;;;5052457;28;20059;-73
2021/01/03 05:35:44;;;;;;;28.75;14.77;;;1.20;99.90;;;;;;5052252;28;20117;-73
2021/01/03 05:38:12;;;;;;;25.90;15.13;;;1.20;99.90;;;;;;5051645;28;20036;-73
2021/01/03 05:40:43;;;;;;;24.23;12.88;;;1.20;99.90;;;;;;5067650;28;20028;-72
2021/01/03 05:43:25;;;;;;;22.15;12.40;;;1.20;99.90;;;;;;5052269;28;20123;-73
2021/01/03 05:46:19;;;;;;;24.33;13.05;;;1.30;99.90;;;;;;5067672;28;20387;-72
2021/01/03 05:49:02;;;;;;;26.60;13.50;;;1.20;99.90;;;;;;5052160;28;20483;-72
2021/01/03 05:51:33;;;;;;;24.52;12.07;;;1.30;99.90;;;;;;5067490;28;20032;-73
2021/01/03 05:54:04;;;;;;;23.45;12.70;;;1.40;99.90;;;;;;5067430;28;20029;-73
2021/01/03 05:56:33;;;;;;;25.80;13.65;;;1.40;99.90;;;;;;5066835;28;20021;-73
2021/01/03 05:58:58;;;;;;;22.98;12.93;;;1.30;99.90;;;;;;5067522;28;20452;-73
2021/01/03 06:01:29;;;;;;;22.92;12.80;;;1.20;99.90;;;;;;5067301;28;20108;-72
2021/01/03 06:04:02;;;;;;;19.45;11.23;;;1.30;99.90;;;;;;5052057;28;20025;-72
2021/01/03 06:06:58;;;;;;;22.88;12.13;;;1.30;99.90;;;;;;5051345;28;20167;-72
2021/01/03 06:09:36;;;;;;;22.98;12.27;;;1.30;99.90;;;;;;5047516;28;20048;-72
2021/01/03 06:12:13;;;;;;;20.88;11.25;;;1.20;99.90;;;;;;5032191;28;20036;-72
2021/01/03 06:14:39;;;;;;;22.55;12.90;;;1.30;99.90;;;;;;5030616;28;20083;-72
2021/01/03 06:17:18;;;;;;;21.40;10.93;;;1.20;99.90;;;;;;5045523;28;20500;-72
2021/01/03 06:19:52;;;;;;;24.98;13.30;;;1.30;99.90;;;;;;5032101;28;20079;-72
2021/01/03 06:22:38;;;;;;;24.00;12.85;;;1.10;99.90;;;;;;5046127;28;20029;-71
2021/01/03 06:25:15;;;;;;;19.65;11.30;;;1.10;99.90;;;;;;5030216;28;20374;-72
2021/01/03 06:27:46;;;;;;;22.33;11.88;;;1.10;99.90;;;;;;5030188;28;20025;-71
2021/01/03 06:30:15;;;;;;;22.70;12.90;;;1.10;99.90;;;;;;5030322;28;20036;-71
2021/01/03 06:33:08;;;;;;;21.23;12.15;;;1.10;99.90;;;;;;5030303;28;20037;-71
2021/01/03 06:35:43;;;;;;;21.00;11.07;;;1.10;99.90;;;;;;5053772;28;20036;-71
2021/01/03 06:38:18;;;;;;;24.00;12.15;;;1.20;99.90;;;;;;5039002;28;20033;-70
2021/01/03 06:40:56;;;;;;;22.17;11.55;;;1.20;99.90;;;;;;5049700;28;20029;-71
2021/01/03 06:43:41;;;;;;;24.30;11.30;;;1.10;99.90;;;;;;5051152;28;20025;-71
2021/01/03 06:46:37;;;;;;;18.17;9.85;;;1.10;99.90;;;;;;5050417;28;20048;-71
2021/01/03 06:49:54;;;;;;;20.50;11.75;;;1.20;99.90;;;;;;5051183;28;20060;-72
2021/01/03 06:52:48;;;;;;;19.10;10.73;;;1.20;99.90;;;;;;4979360;28;20121;-72
2021/01/03 06:55:22;;;;;;;22.02;11.95;;;1.20;99.90;;;;;;5046670;28;20033;-73
2021/01/03 06:58:08;;;;;;;20.98;12.18;;;1.10;99.90;;;;;;5050310;28;20025;-73
2021/01/03 07:00:41;;;;;;;20.45;11.98;;;1.10;99.90;;;;;;5049746;28;20706;-72
2021/01/03 07:03:24;;;;;;;24.60;12.50;;;1.10;99.90;;;;;;5049693;28;20112;-73
2021/01/03 07:06:10;;;;;;;23.10;12.27;;;1.00;99.90;;;;;;5049564;28;20032;-73
2021/01/03 07:08:43;;;;;;;22.70;12.57;;;1.00;99.90;;;;;;5037791;28;20044;-73
2021/01/03 07:11:50;;;;;;;21.67;12.52;;;1.00;99.90;;;;;;5049518;28;20025;-73
2021/01/03 07:14:21;;;;;;;21.63;11.98;;;1.00;99.90;;;;;;4969615;28;20037;-73
2021/01/03 07:17:07;;;;;;;25.27;14.68;;;1.00;99.90;;;;;;4952985;28;20023;-73
2021/01/03 07:19:33;;;;;;;19.15;10.48;;;1.00;99.90;;;;;;4969521;28;20065;-73
2021/01/03 07:22:04;;;;;;;22.02;11.98;;;1.00;99.90;;;;;;4953447;28;20086;-73
2021/01/03 07:24:36;;;;;;;21.95;11.88;;;1.10;99.90;;;;;;4953241;28;20019;-72
2021/01/03 07:27:20;;;;;;;20.23;10.82;;;1.00;99.90;;;;;;4968978;28;20114;-73
2021/01/03 07:30:09;;;;;;;19.75;11.55;;;1.10;99.90;;;;;;4953219;28;20756;-72
2021/01/03 07:32:37;;;;;;;20.27;11.23;;;1.10;99.90;;;;;;4961665;28;20037;-73
2021/01/03 07:35:26;;;;;;;22.67;11.57;;;1.00;99.90;;;;;;4969298;28;20058;-73
2021/01/03 07:38:12;;;;;;;18.40;10.55;;;1.00;99.90;;;;;;4958653;28;20039;-72
2021/01/03 07:41:04;;;;;;;20.90;11.55;;;1.10;99.90;;;;;;4971575;28;20486;-73
2021/01/03 07:43:30;;;;;;;19.13;10.63;;;1.00;99.90;;;;;;4966172;28;20034;-73
2021/01/03 07:45:55;;;;;;;18.17;10.38;;;1.00;99.90;;;;;;5045499;28;20064;-72
2021/01/03 07:48:37;;;;;;;19.92;10.02;;;1.00;99.90;;;;;;5069082;28;20747;-72
2021/01/03 07:51:07;;;;;;;20.33;10.27;;;1.10;99.90;;;;;;5054407;28;20051;-72
2021/01/03 07:53:35;;;;;;;16.20;10.07;;;1.00;99.90;;;;;;5054667;28;20029;-71
2021/01/03 07:56:21;;;;;;;19.80;11.75;;;1.00;99.90;;;;;;5053832;28;20024;-72
2021/01/03 07:58:54;;;;;;;17.25;9.45;;;1.10;99.90;;;;;;5054236;28;20513;-72
2021/01/03 08:01:24;;;;;;;25.95;14.52;;;1.10;99.90;;;;;;5069593;28;20030;-72
2021/01/03 08:03:49;;;;;;;19.73;10.73;;;1.10;99.90;;;;;;5052823;28;20025;-71
2021/01/03 08:06:15;;;;;;;20.77;10.70;;;1.20;99.90;;;;;;5052078;28;20031;-73
2021/01/03 08:08:41;;;;;;;19.08;10.77;;;1.20;99.90;;;;;;5042502;28;20033;-71
2021/01/03 08:11:26;;;;;;;18.63;9.93;;;1.30;99.90;;;;;;5034371;28;20642;-72
2021/01/03 08:13:58;;;;;;;18.52;10.15;;;1.30;99.90;;;;;;5041493;28;20036;-72
2021/01/03 08:16:26;;;;;;;18.40;9.50;;;1.40;99.90;;;;;;5068774;28;20032;-72
2021/01/03 08:19:05;;;;;;;18.50;10.02;;;1.40;99.90;;;;;;5053776;28;20074;-72
2021/01/03 08:21:39;;;;;;;17.77;10.55;;;1.50;99.90;;;;;;5053575;28;20499;-72
2021/01/03 08:24:05;;;;;;;19.05;9.80;;;1.40;99.90;;;;;;5053894;28;20444;-72
2021/01/03 08:26:35;;;;;;;20.38;9.68;;;1.50;99.90;;;;;;5052725;28;20047;-72
2021/01/03 08:29:41;;;;;;;16.95;9.20;;;1.50;99.90;;;;;;5035879;28;20032;-72
2021/01/03 08:32:16;;;;;;;17.73;9.00;;;1.40;99.90;;;;;;4971996;28;20035;-72
2021/01/03 08:34:42;;;;;;;16.27;8.82;;;1.50;99.90;;;;;;4972088;28;20055;-72
2021/01/03 08:37:21;;;;;;;18.75;9.60;;;1.50;99.90;;;;;;4971649;28;20043;-72
2021/01/03 08:39:48;;;;;;;14.93;8.60;;;1.50;99.90;;;;;;4972041;28;20066;-72
2021/01/03 08:42:41;;;;;;;15.43;8.93;;;1.40;99.90;;;;;;4971814;28;20039;-72
2021/01/03 08:45:15;;;;;;;15.60;9.23;;;1.50;99.90;;;;;;4970044;28;20039;-72
2021/01/03 08:47:41;;;;;;;14.93;8.63;;;1.50;99.90;;;;;;4971252;28;20163;-72
2021/01/03 08:50:20;;;;;;;15.55;8.73;;;1.60;99.90;;;;;;4971088;28;20031;-72
2021/01/03 08:53:00;;;;;;;17.27;9.90;;;1.70;99.90;;;;;;4971920;28;20038;-72
2021/01/03 08:55:28;;;;;;;20.00;9.73;;;1.60;99.90;;;;;;4971801;28;20414;-72
2021/01/03 08:57:59;;;;;;;15.43;9.15;;;1.70;99.90;;;;;;4971026;28;20453;-72
2021/01/03 09:00:29;;;;;;;16.02;8.75;;;1.70;99.90;;;;;;4971608;28;20031;-72
2021/01/03 09:02:57;;;;;;;16.13;8.73;;;1.70;99.90;;;;;;4971462;28;20037;-72
2021/01/03 09:05:28;;;;;;;15.48;9.40;;;1.70;99.90;;;;;;4971617;28;20266;-72
2021/01/03 09:07:54;;;;;;;15.82;9.02;;;1.70;99.90;;;;;;4981936;28;20127;-73
2021/01/03 09:10:37;;;;;;;16.48;8.98;;;1.70;99.90;;;;;;5033107;28;20396;-71
2021/01/03 09:13:13;;;;;;;17.88;9.70;;;1.80;99.90;;;;;;5031736;28;20028;-72
2021/01/03 09:15:42;;;;;;;17.42;9.73;;;1.80;99.90;;;;;;5032871;28;20036;-72
2021/01/03 09:18:30;;;;;;;17.83;9.55;;;1.90;99.90;;;;;;5032085;28;20435;-72
2021/01/03 09:21:04;;;;;;;14.82;9.52;;;2.00;99.90;;;;;;5031591;28;20022;-72
2021/01/03 09:23:33;;;;;;;15.80;9.88;;;1.90;99.90;;;;;;5031556;28;20032;-72
2021/01/03 09:25:59;;;;;;;15.48;8.95;;;2.10;99.90;;;;;;5031165;28;20026;-72
2021/01/03 09:28:38;;;;;;;17.05;9.25;;;2.10;99.90;;;;;;5031168;28;20029;-72
2021/01/03 09:31:12;;;;;;;16.90;9.05;;;2.10;99.90;;;;;;5032752;28;20036;-72
2021/01/03 09:33:39;;;;;;;23.70;12.32;;;2.10;99.90;;;;;;5031255;28;20025;-72
2021/01/03 09:36:07;;;;;;;16.60;8.80;;;2.00;99.90;;;;;;5047187;28;20091;-72
2021/01/03 09:38:39;;;;;;;17.17;9.57;;;2.10;99.90;;;;;;5031091;28;20048;-72
2021/01/03 09:41:23;;;;;;;19.08;10.48;;;2.00;99.90;;;;;;5032698;28;20021;-72
2021/01/03 09:44:22;;;;;;;19.00;10.57;;;2.00;99.90;;;;;;5032213;28;20048;-72
2021/01/03 09:47:00;;;;;;;20.27;10.23;;;1.90;99.90;;;;;;5030533;28;20021;-72
2021/01/03 09:49:37;;;;;;;17.80;9.77;;;1.80;99.90;;;;;;5032254;28;20029;-72
2021/01/03 09:52:28;;;;;;;17.55;10.07;;;1.90;99.90;;;;;;5030849;28;20037;-72
2021/01/03 09:54:59;;;;;;;16.52;9.57;;;1.80;99.90;;;;;;5030770;28;20447;-72
2021/01/03 09:57:34;;;;;;;19.90;11.25;;;1.80;99.90;;;;;;5031472;28;20033;-72
2021/01/03 10:00:00;;;;;;;18.13;10.38;;;1.80;99.90;;;;;;5032110;28;20097;-72
2021/01/03 10:02:26;;;;;;;20.77;11.20;;;1.70;99.90;;;;;;5031942;28;20053;-71
2021/01/03 10:04:52;;;;;;;16.95;10.18;;;1.80;99.90;;;;;;5031959;28;20026;-73
2021/01/03 10:07:24;;;;;;;16.30;9.02;;;1.80;99.90;;;;;;5030214;28;20025;-72
2021/01/03 10:10:06;;;;;;;21.20;10.93;;;1.80;99.90;;;;;;5031632;28;20021;-72
2021/01/03 10:12:35;;;;;;;19.52;11.48;;;1.70;99.90;;;;;;5031898;28;20546;-72
2021/01/03 10:15:15;;;;;;;18.25;10.07;;;1.80;99.90;;;;;;5031787;28;20044;-72
2021/01/03 10:17:56;;;;;;;19.23;10.60;;;1.80;99.90;;;;;;5029955;28;20041;-72
2021/01/03 10:20:47;;;;;;;16.23;8.60;;;1.80;99.90;;;;;;5030382;28;20032;-72
2021/01/03 10:23:37;;;;;;;18.55;10.38;;;1.70;99.90;;;;;;5047059;28;20370;-72
2021/01/03 10:26:24;;;;;;;15.32;8.75;;;1.70;99.90;;;;;;5031125;28;20023;-72
2021/01/03 10:28:51;;;;;;;14.75;8.18;;;1.70;99.90;;;;;;5016667;28;20091;-72
2021/01/03 10:31:17;;;;;;;16.25;8.98;;;1.80;99.90;;;;;;5031491;28;20035;-72
2021/01/03 10:33:43;;;;;;;13.75;8.20;;;1.70;99.90;;;;;;5030120;28;20034;-72
2021/01/03 10:36:14;;;;;;;13.65;7.20;;;1.70;99.90;;;;;;5030629;28;20124;-72
2021/01/03 10:38:39;;;;;;;13.30;8.10;;;1.60;99.90;;;;;;5031265;28;20037;-72
2021/01/03 10:41:05;;;;;;;14.15;8.25;;;1.70;99.90;;;;;;5046347;28;20484;-72
2021/01/03 10:43:30;;;;;;;14.55;8.23;;;1.80;99.90;;;;;;5031325;28;20029;-72
2021/01/03 10:45:57;;;;;;;14.32;7.80;;;1.80;99.90;;;;;;5029064;28;20025;-72
2021/01/03 10:48:22;;;;;;;12.25;7.10;;;1.90;99.90;;;;;;5045909;28;20029;-72
2021/01/03 10:50:48;;;;;;;15.32;8.63;;;1.90;99.90;;;;;;5029877;28;20176;-71
2021/01/03 10:53:15;;;;;;;13.88;7.80;;;1.90;99.90;;;;;;5029800;28;20021;-71
2021/01/03 10:55:40;;;;;;;14.23;8.43;;;1.90;99.90;;;;;;5029658;28;20115;-71
2021/01/03 10:58:06;;;;;;;13.95;7.90;;;1.80;99.90;;;;;;5029018;28;20728;-71
2021/01/03 11:00:31;;;;;;;16.88;8.82;;;1.90;99.90;;;;;;5030868;28;20026;-70
2021/01/03 11:02:57;;;;;;;13.57;7.65;;;1.90;99.90;;;;;;5029679;28;20049;-70
2021/01/03 11:05:22;;;;;;;15.15;8.07;;;1.90;99.90;;;;;;5046125;28;20022;-71
2021/01/03 11:07:48;;;;;;;17.55;8.65;;;1.90;99.90;;;;;;5045455;28;20530;-71
2021/01/03 11:10:13;;;;;;;14.60;8.65;;;2.00;99.90;;;;;;5030801;28;20033;-72
2021/01/03 11:12:39;;;;;;;15.40;9.18;;;2.00;99.90;;;;;;5030725;28;20108;-72
2021/01/03 11:15:07;;;;;;;14.30;8.57;;;2.00;99.90;;;;;;5028868;28;20029;-72
2021/01/03 11:17:33;;;;;;;15.55;8.77;;;2.00;99.90;;;;;;5028736;28;20032;-72
2021/01/03 11:19:58;;;;;;;15.02;8.40;;;2.00;99.90;;;;;;5046136;28;20029;-72
2021/01/03 11:22:24;;;;;;;17.92;9.63;;;2.00;99.90;;;;;;5029337;28;20048;-72
2021/01/03 11:24:49;;;;;;;15.73;9.05;;;2.10;99.90;;;;;;5029653;28;20116;-71
2021/01/03 11:27:17;;;;;;;15.50;8.75;;;2.00;99.90;;;;;;5030163;28;20049;-71
2021/01/03 11:29:43;;;;;;;16.75;9.27;;;2.00;99.90;;;;;;5030743;28;20068;-71
2021/01/03 11:32:15;;;;;;;15.85;9.57;;;2.00;99.90;;;;;;5029716;28;20049;-71
2021/01/03 11:34:41;;;;;;;16.63;9.00;;;1.90;99.90;;;;;;5047499;28;20123;-71
2021/01/03 11:37:10;;;;;;;17.75;10.18;;;1.90;99.90;;;;;;5049665;28;20119;-72
2021/01/03 11:39:36;;;;;;;15.27;9.75;;;1.90;99.90;;;;;;5050493;28;20043;-73
2021/01/03 11:42:10;;;;;;;16.73;9.30;;;2.00;99.90;;;;;;5040462;28;20120;-71
2021/01/03 11:44:38;;;;;;;16.40;9.60;;;2.10;99.90;;;;;;5034577;28;20017;-72
2021/01/03 11:47:11;;;;;;;16.58;9.55;;;2.10;99.90;;;;;;5039386;28;20017;-72
2021/01/03 11:49:37;;;;;;;17.35;9.13;;;2.10;99.90;;;;;;5036035;28;20484;-71
2021/01/03 11:52:03;;;;;;;15.65;8.73;;;2.20;99.90;;;;;;5030804;28;20072;-71
2021/01/03 11:54:29;;;;;;;17.05;9.05;;;2.30;99.90;;;;;;5034734;28;20030;-71
2021/01/03 11:56:56;;;;;;;14.48;8.48;;;2.30;99.90;;;;;;5049378;28;20108;-71
2021/01/03 11:59:23;;;;;;;15.85;9.65;;;2.20;99.90;;;;;;5050089;28;20159;-71
2021/01/03 12:01:49;;;;;;;14.65;9.25;;;2.20;99.90;;;;;;5048982;28;20029;-71
2021/01/03 12:04:14;;;;;;;16.52;9.20;;;2.10;99.90;;;;;;5050214;28;20035;-71
2021/01/03 12:06:40;;;;;;;18.33;9.93;;;2.10;99.90;;;;;;5048341;28;20506;-71
2021/01/03 12:09:06;;;;;;;15.98;9.75;;;2.10;99.90;;;;;;5049007;28;20032;-71
2021/01/03 12:11:32;;;;;;;17.13;9.60;;;2.10;99.90;;;;;;5065709;28;20036;-71
2021/01/03 12:14:01;;;;;;;18.52;10.18;;;2.10;99.90;;;;;;5050268;28;20104;-71
2021/01/03 12:16:30;;;;;;;17.98;10.35;;;2.10;99.90;;;;;;5049544;28;20602;-71
2021/01/03 12:18:56;;;;;;;18.05;10.10;;;2.10;99.90;;;;;;5050209;28;20514;-71
2021/01/03 12:21:27;;;;;;;17.90;10.20;;;2.10;99.90;;;;;;5048976;28;20112;-71
2021/01/03 12:23:53;;;;;;;17.70;10.20;;;2.10;99.90;;;;;;5050022;28;20488;-71
2021/01/03 12:26:20;;;;;;;19.67;11.77;;;2.10;99.90;;;;;;5050896;28;20029;-71
2021/01/03 12:28:46;;;;;;;16.23;9.75;;;2.00;99.90;;;;;;5053815;28;20430;-70
2021/01/03 12:31:12;;;;;;;22.15;12.52;;;2.00;99.90;;;;;;5053484;28;20029;-71
2021/01/03 12:33:37;;;;;;;20.30;11.40;;;1.90;99.90;;;;;;5053553;28;20029;-70
2021/01/03 12:36:04;;;;;;;20.00;10.65;;;2.00;99.90;;;;;;5068302;28;20091;-71
2021/01/03 12:38:29;;;;;;;21.23;12.40;;;2.00;99.90;;;;;;5053192;28;20450;-71
2021/01/03 12:40:55;;;;;;;22.98;12.27;;;2.00;99.90;;;;;;5053362;28;20024;-70
2021/01/03 12:43:20;;;;;;;17.08;10.95;;;2.00;99.90;;;;;;5053385;28;20029;-70
2021/01/03 12:45:46;;;;;;;21.15;13.27;;;1.90;99.90;;;;;;5051897;28;20018;-70
2021/01/03 12:48:11;;;;;;;16.30;9.40;;;1.90;99.90;;;;;;5067990;28;20025;-71
2021/01/03 12:50:37;;;;;;;19.13;11.80;;;1.80;99.90;;;;;;5068613;28;20029;-71
2021/01/03 12:53:03;;;;;;;20.25;10.90;;;1.80;99.90;;;;;;5053076;28;20036;-71
2021/01/03 12:55:28;;;;;;;14.90;9.57;;;1.70;99.90;;;;;;5053035;28;20134;-71
2021/01/03 12:57:54;;;;;;;18.88;10.43;;;1.70;99.90;;;;;;5052290;28;20025;-70
2021/01/03 13:00:19;;;;;;;20.92;12.43;;;1.70;99.90;;;;;;5068470;28;20124;-72